Time;durP1;ratioP1;P1;durP2;ratioP2;P2;SDS_P1;SDS_P2;PMS_P1;PMS_P2;Temp;Humidity;BMP_temperature;BMP_pressure;BME280_temperature;BME280_humidity;BME280_pressure;Samples;Min_cycle;Max_cycle;Signal;HPM_P1;HPM_P2
2021/07/17 00:01:27;;;;;;;22.10;14.48;;;23.20;91.80;;;;;;3585016;40;20028;-65
2021/07/17 00:03:53;;;;;;;19.63;14.70;;;23.20;91.90;;;;;;3581326;40;20033;-64
2021/07/17 00:06:18;;;;;;;17.83;14.57;;;23.20;91.80;;;;;;3585136;40;20036;-62
2021/07/17 00:08:46;;;;;;;18.38;15.00;;;23.20;91.80;;;;;;3582048;40;20039;-62
2021/07/17 00:11:11;;;;;;;16.73;14.50;;;23.20;91.80;;;;;;3581465;40;20087;-63
2021/07/17 00:13:37;;;;;;;18.05;14.18;;;23.20;91.80;;;;;;3587060;40;20564;-65
2021/07/17 00:16:03;;;;;;;19.17;14.38;;;23.20;91.80;;;;;;3586850;40;20041;-65
2021/07/17 00:18:29;;;;;;;17.42;13.85;;;23.20;91.70;;;;;;3584491;39;20055;-65
2021/07/17 00:20:55;;;;;;;18.85;13.98;;;23.20;91.60;;;;;;3581779;40;20039;-65
2021/07/17 00:23:21;;;;;;;16.30;13.52;;;23.20;91.70;;;;;;3585827;40;20036;-64
2021/07/17 00:25:49;;;;;;;20.20;13.98;;;23.20;91.70;;;;;;3579486;40;20741;-65
2021/07/17 00:28:15;;;;;;;19.85;13.85;;;23.10;91.70;;;;;;3584056;40;20028;-65
2021/07/17 00:30:41;;;;;;;19.17;13.88;;;23.10;91.60;;;;;;3588148;40;20031;-65
2021/07/17 00:33:07;;;;;;;15.82;13.43;;;23.10;91.60;;;;;;3586395;39;20028;-65
2021/07/17 00:35:33;;;;;;;15.02;12.70;;;23.10;91.50;;;;;;3582086;39;20044;-65
2021/07/17 00:37:58;;;;;;;15.90;12.35;;;23.10;91.50;;;;;;3580808;40;20025;-66
2021/07/17 00:40:24;;;;;;;19.70;12.35;;;23.10;91.30;;;;;;3586648;40;20013;-65
2021/07/17 00:42:51;;;;;;;18.75;11.90;;;23.10;91.20;;;;;;3588657;40;20047;-66
2021/07/17 00:45:19;;;;;;;16.73;12.77;;;23.10;91.30;;;;;;3583349;40;20024;-65
2021/07/17 00:47:45;;;;;;;16.50;12.43;;;23.00;91.30;;;;;;3579326;40;20084;-65
2021/07/17 00:50:15;;;;;;;15.45;12.52;;;23.00;91.20;;;;;;3584467;40;20035;-65
2021/07/17 00:52:41;;;;;;;16.83;12.05;;;23.00;91.30;;;;;;3585094;39;20036;-65
2021/07/17 00:55:08;;;;;;;15.48;11.88;;;23.00;91.30;;;;;;3583911;40;20020;-65
2021/07/17 00:57:35;;;;;;;17.90;11.35;;;23.00;91.20;;;;;;3584369;39;20040;-65
2021/07/17 01:00:04;;;;;;;16.58;12.07;;;22.90;91.20;;;;;;3582165;40;20021;-67
2021/07/17 01:02:35;;;;;;;16.63;11.05;;;22.90;91.10;;;;;;3581684;39;20122;-66
2021/07/17 01:05:01;;;;;;;15.50;11.30;;;22.80;91.10;;;;;;3581731;40;20541;-66
2021/07/17 01:07:26;;;;;;;13.73;11.32;;;22.90;91.10;;;;;;3581944;40;20048;-65
2021/07/17 01:09:53;;;;;;;15.13;10.70;;;22.90;91.10;;;;;;3580752;40;20831;-65
2021/07/17 01:12:19;;;;;;;24.92;10.82;;;22.90;91.00;;;;;;3584717;40;20704;-65
2021/07/17 01:14:46;;;;;;;12.02;9.57;;;22.90;90.90;;;;;;3588212;40;20028;-65
2021/07/17 01:17:13;;;;;;;13.63;9.85;;;22.80;90.60;;;;;;3583822;39;20158;-64
2021/07/17 01:19:39;;;;;;;19.13;9.48;;;22.80;90.70;;;;;;3578837;40;20035;-65
2021/07/17 01:22:05;;;;;;;15.93;9.85;;;22.80;90.70;;;;;;3582901;40;20028;-65
2021/07/17 01:24:31;;;;;;;15.40;9.93;;;22.70;90.50;;;;;;3587423;39;20032;-65
2021/07/17 01:26:58;;;;;;;14.25;9.30;;;22.80;90.50;;;;;;3585158;39;20028;-65
2021/07/17 01:29:24;;;;;;;17.85;8.63;;;22.80;90.50;;;;;;3580440;39;20437;-65
2021/07/17 01:31:50;;;;;;;14.38;9.38;;;22.80;90.50;;;;;;3584317;40;20028;-65
2021/07/17 01:34:17;;;;;;;20.08;10.27;;;22.90;90.50;;;;;;3584767;40;20396;-65
2021/07/17 01:36:43;;;;;;;17.70;9.73;;;22.90;90.40;;;;;;3586503;39;20040;-65
2021/07/17 01:39:09;;;;;;;16.58;9.98;;;22.90;90.30;;;;;;3572912;40;20109;-65
2021/07/17 01:41:35;;;;;;;14.10;9.05;;;22.90;90.20;;;;;;3580576;40;20048;-65
2021/07/17 01:44:01;;;;;;;14.55;8.75;;;22.90;90.30;;;;;;3585128;40;20647;-65
2021/07/17 01:46:27;;;;;;;11.07;8.32;;;22.90;90.40;;;;;;3589248;39;20067;-65
2021/07/17 01:48:54;;;;;;;12.93;8.75;;;22.90;90.40;;;;;;3586292;40;20040;-65
2021/07/17 01:51:21;;;;;;;14.98;8.82;;;22.90;90.50;;;;;;3581155;40;20029;-65
2021/07/17 01:53:48;;;;;;;11.80;8.75;;;22.80;90.50;;;;;;3583456;40;20427;-64
2021/07/17 01:56:16;;;;;;;13.90;9.10;;;22.80;90.40;;;;;;3588508;39;20056;-65
2021/07/17 01:58:42;;;;;;;16.27;8.70;;;22.80;90.60;;;;;;3587974;39;20047;-65
2021/07/17 02:01:09;;;;;;;16.33;9.23;;;22.80;90.70;;;;;;3583898;40;20609;-65
2021/07/17 02:03:36;;;;;;;18.02;8.98;;;22.80;90.70;;;;;;3581750;40;20037;-65
2021/07/17 02:06:03;;;;;;;20.65;9.35;;;22.80;90.80;;;;;;3583113;40;20068;-65
2021/07/17 02:08:30;;;;;;;13.55;8.70;;;22.80;90.60;;;;;;3589045;39;20032;-65
2021/07/17 02:10:56;;;;;;;13.43;8.38;;;22.90;90.60;;;;;;3584758;40;20098;-65
2021/07/17 02:13:22;;;;;;;14.65;7.80;;;22.80;90.60;;;;;;3583708;40;20028;-65
2021/07/17 02:15:50;;;;;;;15.27;8.52;;;22.80;90.60;;;;;;3580771;40;20032;-65
2021/07/17 02:18:26;;;;;;;10.90;7.90;;;22.80;90.70;;;;;;3588362;40;20035;-65
2021/07/17 02:20:52;;;;;;;;;;;22.80;90.80;;;;;;3583932;40;20516;-65
2021/07/17 02:23:17;;;;;;;12.13;8.25;;;22.80;90.80;;;;;;3585919;40;19936;-65
2021/07/17 02:25:43;;;;;;;12.38;9.25;;;22.70;90.90;;;;;;3581693;40;20376;-65
2021/07/17 02:28:09;;;;;;;15.07;9.73;;;22.70;91.10;;;;;;3587098;40;20678;-65
2021/07/17 02:30:34;;;;;;;13.77;9.38;;;22.70;91.10;;;;;;3583532;40;20028;-65
2021/07/17 02:33:01;;;;;;;16.20;9.25;;;22.70;91.20;;;;;;3585601;40;20013;-65
2021/07/17 02:35:26;;;;;;;16.92;9.18;;;22.80;91.20;;;;;;3583422;39;20494;-65
2021/07/17 02:37:52;;;;;;;15.10;9.25;;;22.80;91.20;;;;;;3585545;40;20129;-66
2021/07/17 02:40:18;;;;;;;14.75;8.95;;;22.80;91.10;;;;;;3587849;40;20092;-65
2021/07/17 02:42:44;;;;;;;15.48;9.30;;;22.80;91.10;;;;;;3584104;40;20039;-65
2021/07/17 02:45:11;;;;;;;17.55;8.95;;;22.80;91.10;;;;;;3581026;39;20025;-65
2021/07/17 02:47:36;;;;;;;21.35;9.65;;;22.80;91.00;;;;;;3583295;40;20025;-65
2021/07/17 02:50:04;;;;;;;18.98;8.88;;;22.80;90.90;;;;;;3586080;40;20024;-64
2021/07/17 02:52:30;;;;;;;13.02;8.13;;;22.90;90.80;;;;;;3587275;39;20033;-65
2021/07/17 02:54:55;;;;;;;18.27;8.75;;;22.90;90.70;;;;;;3583202;40;20020;-65
2021/07/17 02:57:21;;;;;;;14.25;8.20;;;22.80;90.60;;;;;;3584420;39;20113;-66
2021/07/17 02:59:47;;;;;;;15.90;8.40;;;22.80;90.50;;;;;;3584264;40;20044;-65
2021/07/17 03:02:12;;;;;;;13.57;8.43;;;22.80;90.50;;;;;;3581548;40;20418;-65
2021/07/17 03:04:38;;;;;;;17.40;7.45;;;22.80;90.50;;;;;;3584280;39;20039;-66
2021/07/17 03:07:04;;;;;;;17.25;8.02;;;22.80;90.30;;;;;;3586097;40;20025;-65
2021/07/17 03:09:30;;;;;;;18.00;7.68;;;22.80;90.70;;;;;;3582275;40;20041;-64
2021/07/17 03:11:55;;;;;;;15.98;7.85;;;22.80;90.40;;;;;;3583516;40;20045;-64
2021/07/17 03:14:21;;;;;;;17.92;8.52;;;22.80;90.20;;;;;;3582498;40;20025;-64
2021/07/17 03:16:47;;;;;;;18.45;8.25;;;22.80;90.20;;;;;;3585929;39;20053;-64
2021/07/17 03:19:13;;;;;;;14.43;7.90;;;22.70;90.20;;;;;;3582647;40;20028;-65
2021/07/17 03:21:39;;;;;;;16.08;8.18;;;22.70;90.30;;;;;;3585503;39;20323;-66
2021/07/17 03:24:05;;;;;;;17.63;7.40;;;22.70;90.40;;;;;;3581451;40;20029;-65
2021/07/17 03:26:31;;;;;;;19.98;8.10;;;22.70;90.30;;;;;;3583686;40;20073;-64
2021/07/17 03:28:57;;;;;;;20.20;7.70;;;22.70;90.30;;;;;;3585354;40;20036;-65
2021/07/17 03:31:30;;;;;;;15.52;7.57;;;22.60;90.40;;;;;;3584047;40;20043;-64
2021/07/17 03:33:57;;;;;;;17.10;7.65;;;22.60;90.40;;;;;;3581148;40;20030;-65
2021/07/17 03:36:23;;;;;;;22.40;8.25;;;22.60;90.40;;;;;;3583742;40;20029;-65
2021/07/17 03:38:49;;;;;;;12.68;7.45;;;22.60;90.30;;;;;;3589819;40;20712;-65
2021/07/17 03:41:15;;;;;;;13.10;7.70;;;22.70;90.30;;;;;;3585299;40;20044;-65
2021/07/17 03:43:41;;;;;;;18.08;8.10;;;22.70;90.20;;;;;;3584008;40;20397;-65
2021/07/17 03:46:06;;;;;;;17.85;7.75;;;22.60;90.20;;;;;;3582217;40;20122;-65
2021/07/17 03:48:32;;;;;;;19.20;7.95;;;22.70;90.20;;;;;;3585889;40;20032;-65
2021/07/17 03:50:58;;;;;;;18.05;7.93;;;22.70;90.00;;;;;;3589361;40;20016;-65
2021/07/17 03:53:24;;;;;;;20.50;7.80;;;22.70;89.70;;;;;;3583333;40;20040;-65
2021/07/17 03:55:50;;;;;;;19.15;7.75;;;22.70;89.60;;;;;;3587887;40;20492;-65
2021/07/17 03:58:15;;;;;;;19.23;7.30;;;22.70;89.70;;;;;;3584878;40;20032;-65
2021/07/17 04:00:41;;;;;;;20.50;7.90;;;22.70;89.10;;;;;;3583806;39;20523;-65
2021/07/17 04:03:07;;;;;;;18.77;7.07;;;22.80;89.20;;;;;;3585325;40;20709;-65
2021/07/17 04:05:32;;;;;;;16.10;7.03;;;22.80;88.60;;;;;;3580913;40;20043;-65
2021/07/17 04:07:58;;;;;;;19.42;7.43;;;22.70;88.80;;;;;;3588264;40;20017;-66
2021/07/17 04:10:24;;;;;;;19.17;7.00;;;22.70;88.90;;;;;;3581863;39;20039;-65
2021/07/17 04:12:49;;;;;;;22.90;7.78;;;22.80;88.90;;;;;;3582618;40;20072;-65
2021/07/17 04:15:15;;;;;;;20.35;7.80;;;22.70;88.90;;;;;;3583280;40;20064;-65
2021/07/17 04:17:41;;;;;;;14.65;6.95;;;22.80;89.10;;;;;;3582706;40;20047;-67
2021/07/17 04:20:08;;;;;;;16.33;7.30;;;22.70;89.00;;;;;;3584185;40;20017;-65
2021/07/17 04:22:35;;;;;;;17.60;6.97;;;22.70;89.20;;;;;;3581226;39;20051;-65
2021/07/17 04:25:03;;;;;;;18.40;7.38;;;22.80;89.20;;;;;;3582017;40;20044;-65
2021/07/17 04:27:29;;;;;;;18.73;7.13;;;22.80;88.90;;;;;;3582015;40;20044;-65
2021/07/17 04:29:55;;;;;;;15.23;6.80;;;22.80;88.90;;;;;;3583071;39;20126;-65
2021/07/17 04:32:20;;;;;;;13.90;7.15;;;22.70;88.60;;;;;;3588616;40;20109;-65
2021/07/17 04:34:46;;;;;;;18.98;7.45;;;22.80;88.60;;;;;;3583671;40;20021;-65
2021/07/17 04:37:19;;;;;;;15.80;6.85;;;22.80;88.60;;;;;;3583419;40;20029;-65
2021/07/17 04:39:48;;;;;;;15.23;6.57;;;22.80;88.50;;;;;;3579694;40;20389;-65
2021/07/17 04:42:14;;;;;;;18.20;8.55;;;22.80;88.30;;;;;;3583774;40;20420;-65
2021/07/17 04:44:40;;;;;;;13.82;6.72;;;22.90;87.70;;;;;;3582831;39;20440;-65
2021/07/17 04:47:05;;;;;;;19.88;7.30;;;22.90;88.40;;;;;;3585555;39;20060;-65
2021/07/17 04:49:31;;;;;;;24.25;6.97;;;22.90;87.50;;;;;;3585376;39;20664;-65
2021/07/17 04:51:57;;;;;;;16.75;7.70;;;22.80;87.50;;;;;;3584007;40;20025;-65
2021/07/17 04:54:23;;;;;;;17.33;6.88;;;22.80;88.00;;;;;;3585219;39;20037;-65
2021/07/17 04:56:48;;;;;;;15.90;8.23;;;22.90;88.00;;;;;;3584320;40;20036;-65
2021/07/17 04:59:14;;;;;;;19.38;7.20;;;22.90;87.50;;;;;;3583202;40;20032;-65
2021/07/17 05:01:40;;;;;;;21.73;7.50;;;22.90;87.40;;;;;;3581350;40;20052;-65
2021/07/17 05:04:05;;;;;;;19.55;7.32;;;22.90;87.90;;;;;;3582625;40;20040;-65
2021/07/17 05:06:31;;;;;;;21.25;7.72;;;22.90;88.00;;;;;;3581117;40;20055;-65
2021/07/17 05:08:57;;;;;;;14.48;7.25;;;23.00;88.30;;;;;;3583747;40;20040;-66
2021/07/17 05:11:23;;;;;;;15.75;7.68;;;23.00;88.00;;;;;;3583698;40;20506;-65
2021/07/17 05:13:48;;;;;;;14.10;7.28;;;23.00;88.00;;;;;;3582536;39;20021;-65
2021/07/17 05:16:14;;;;;;;14.63;6.95;;;22.90;88.00;;;;;;3582069;40;20028;-65
2021/07/17 05:18:40;;;;;;;16.23;7.15;;;22.90;88.10;;;;;;3585037;40;20037;-65
2021/07/17 05:21:06;;;;;;;20.48;7.93;;;23.00;88.10;;;;;;3587411;40;20032;-65
2021/07/17 05:23:31;;;;;;;23.20;8.48;;;23.00;87.60;;;;;;3585608;40;20064;-66
2021/07/17 05:25:57;;;;;;;23.80;8.75;;;23.00;87.50;;;;;;3587704;40;20675;-65
2021/07/17 05:28:22;;;;;;;23.10;8.20;;;23.00;87.90;;;;;;3582774;40;20029;-65
2021/07/17 05:30:50;;;;;;;16.13;8.35;;;22.90;87.60;;;;;;3584536;40;20056;-65
2021/07/17 05:33:16;;;;;;;17.65;8.38;;;22.90;87.80;;;;;;3583643;40;20035;-65
2021/07/17 05:35:42;;;;;;;21.17;8.45;;;22.90;87.90;;;;;;3583489;40;20129;-65
2021/07/17 05:38:08;;;;;;;20.88;8.50;;;22.80;88.40;;;;;;3584027;40;20045;-64
2021/07/17 05:40:35;;;;;;;17.15;8.32;;;22.80;88.60;;;;;;3585090;40;20062;-65
2021/07/17 05:43:00;;;;;;;22.75;9.20;;;22.80;88.40;;;;;;3586369;40;20786;-65
2021/07/17 05:45:26;;;;;;;20.98;7.85;;;22.80;88.40;;;;;;3584161;40;20036;-65
2021/07/17 05:47:52;;;;;;;20.30;8.50;;;22.80;88.70;;;;;;3585242;39;20045;-65
2021/07/17 05:50:19;;;;;;;20.63;8.52;;;22.80;88.60;;;;;;3583823;40;20061;-65
2021/07/17 05:52:45;;;;;;;22.65;9.38;;;22.90;88.40;;;;;;3583363;40;20044;-65
2021/07/17 05:55:12;;;;;;;19.55;8.73;;;22.90;88.40;;;;;;3586802;40;20166;-65
2021/07/17 05:57:38;;;;;;;18.65;8.77;;;22.90;88.50;;;;;;3584358;40;20024;-65
2021/07/17 06:00:08;;;;;;;20.00;8.43;;;23.00;88.30;;;;;;3584488;39;20028;-65
2021/07/17 06:02:39;;;;;;;20.90;8.93;;;23.00;88.20;;;;;;3584574;40;20039;-65
2021/07/17 06:05:05;;;;;;;19.00;9.05;;;23.10;88.20;;;;;;3582296;40;20047;-66
2021/07/17 06:07:31;;;;;;;22.70;10.20;;;23.10;88.10;;;;;;3585509;39;20396;-65
2021/07/17 06:09:56;;;;;;;20.45;9.60;;;23.20;88.20;;;;;;3585866;39;20024;-65
2021/07/17 06:12:22;;;;;;;17.60;8.52;;;23.20;88.10;;;;;;3586357;39;20165;-65
2021/07/17 06:14:48;;;;;;;17.65;9.07;;;23.30;87.80;;;;;;3588105;40;20028;-65
2021/07/17 06:17:14;;;;;;;21.55;8.30;;;23.40;87.40;;;;;;3586797;39;20130;-65
2021/07/17 06:19:40;;;;;;;20.98;9.10;;;23.40;87.00;;;;;;3584890;40;20024;-65
2021/07/17 06:22:07;;;;;;;23.88;9.68;;;23.50;87.10;;;;;;3586729;40;20032;-65
2021/07/17 06:24:33;;;;;;;17.30;9.27;;;23.50;87.20;;;;;;3582808;40;20032;-65
2021/07/17 06:26:59;;;;;;;23.58;8.85;;;23.50;87.30;;;;;;3580104;40;20127;-65
2021/07/17 06:29:24;;;;;;;18.52;9.40;;;23.60;86.90;;;;;;3583087;40;20047;-65
2021/07/17 06:31:50;;;;;;;20.13;9.88;;;23.60;86.60;;;;;;3588395;40;20423;-65
2021/07/17 06:34:16;;;;;;;17.13;9.02;;;23.60;86.90;;;;;;3584588;40;20028;-65
2021/07/17 06:36:41;;;;;;;19.50;10.45;;;23.60;87.10;;;;;;3585339;39;20040;-65
2021/07/17 06:39:07;;;;;;;21.35;10.25;;;23.60;87.00;;;;;;3580749;40;20027;-65
2021/07/17 06:41:33;;;;;;;21.75;10.25;;;23.50;87.00;;;;;;3583140;39;20035;-65
2021/07/17 06:43:59;;;;;;;26.02;10.90;;;23.50;87.00;;;;;;3580376;40;20696;-65
2021/07/17 06:46:24;;;;;;;18.45;9.93;;;23.50;87.30;;;;;;3581969;40;20028;-65
2021/07/17 06:48:50;;;;;;;17.85;10.13;;;23.40;87.60;;;;;;3584604;40;20038;-65
2021/07/17 06:51:16;;;;;;;18.60;9.32;;;23.40;88.10;;;;;;3583347;39;20032;-65
2021/07/17 06:53:42;;;;;;;22.20;10.63;;;23.40;88.20;;;;;;3586573;40;20090;-65
2021/07/17 06:56:08;;;;;;;20.75;10.77;;;23.40;87.90;;;;;;3583720;40;20055;-65
2021/07/17 06:58:33;;;;;;;19.02;10.70;;;23.40;87.90;;;;;;3579280;40;20017;-65
2021/07/17 07:01:00;;;;;;;19.40;11.25;;;23.40;88.20;;;;;;3583824;40;20036;-65
2021/07/17 07:03:26;;;;;;;21.45;10.88;;;23.40;88.50;;;;;;3580974;40;20036;-65
2021/07/17 07:05:52;;;;;;;19.05;11.40;;;23.40;88.60;;;;;;3581996;40;20048;-65
2021/07/17 07:08:17;;;;;;;17.15;11.15;;;23.40;88.90;;;;;;3582523;40;20621;-65
2021/07/17 07:10:43;;;;;;;19.33;11.73;;;23.40;89.30;;;;;;3583747;40;20039;-65
2021/07/17 07:13:10;;;;;;;28.30;12.77;;;23.40;89.40;;;;;;3585446;40;20052;-65
2021/07/17 07:15:38;;;;;;;19.25;11.73;;;23.50;89.40;;;;;;3581530;39;20056;-65
2021/07/17 07:18:04;;;;;;;20.52;11.98;;;23.50;89.20;;;;;;3585778;39;20056;-65
2021/07/17 07:20:30;;;;;;;19.13;12.15;;;23.50;89.20;;;;;;3585367;40;20063;-65
2021/07/17 07:22:56;;;;;;;24.75;12.63;;;23.50;89.40;;;;;;3581605;39;20314;-65
2021/07/17 07:25:22;;;;;;;19.73;12.90;;;23.50;89.00;;;;;;3582583;40;20061;-65
2021/07/17 07:27:48;;;;;;;22.90;12.15;;;23.50;89.10;;;;;;3586287;40;20036;-65
2021/07/17 07:30:15;;;;;;;22.80;13.30;;;23.60;89.50;;;;;;3580665;40;20040;-65
2021/07/17 07:32:41;;;;;;;22.20;12.90;;;23.70;89.20;;;;;;3584077;40;20603;-65
2021/07/17 07:35:07;;;;;;;21.23;12.43;;;23.70;89.10;;;;;;3586801;39;20032;-65
2021/07/17 07:37:33;;;;;;;20.77;12.60;;;23.70;89.00;;;;;;3587660;40;20095;-65
2021/07/17 07:39:59;;;;;;;23.42;12.85;;;23.70;88.70;;;;;;3583301;39;20062;-65
2021/07/17 07:42:25;;;;;;;19.75;12.80;;;23.80;88.80;;;;;;3579960;39;20423;-65
2021/07/17 07:44:52;;;;;;;17.60;11.35;;;23.80;88.60;;;;;;3586580;39;20052;-65
2021/07/17 07:47:18;;;;;;;19.65;12.55;;;23.80;89.00;;;;;;3582873;40;20029;-65
2021/07/17 07:49:45;;;;;;;18.85;12.07;;;23.80;89.00;;;;;;3584218;40;20401;-65
2021/07/17 07:52:11;;;;;;;26.33;13.73;;;23.80;89.10;;;;;;3587086;40;20035;-65
2021/07/17 07:54:36;;;;;;;17.48;13.15;;;23.90;88.90;;;;;;3586903;39;20032;-65
2021/07/17 07:57:03;;;;;;;22.48;13.35;;;23.90;88.60;;;;;;3580595;40;20053;-65
2021/07/17 07:59:29;;;;;;;23.60;13.50;;;24.00;88.30;;;;;;3576201;40;20031;-65
2021/07/17 08:01:54;;;;;;;25.83;13.50;;;24.10;87.90;;;;;;3587131;39;20032;-65
2021/07/17 08:04:20;;;;;;;20.80;13.43;;;24.20;87.50;;;;;;3585532;39;20040;-65
2021/07/17 08:06:46;;;;;;;20.17;11.77;;;24.30;87.50;;;;;;3584420;39;20036;-65
2021/07/17 08:09:13;;;;;;;18.58;11.93;;;24.40;87.30;;;;;;3582872;40;20067;-66
2021/07/17 08:11:39;;;;;;;17.85;10.85;;;24.40;86.70;;;;;;3584495;40;20124;-65
2021/07/17 08:14:05;;;;;;;22.33;12.23;;;24.50;85.40;;;;;;3581710;40;20223;-65
2021/07/17 08:16:30;;;;;;;21.08;12.93;;;24.60;85.40;;;;;;3583935;40;20029;-65
2021/07/17 08:18:56;;;;;;;21.95;13.45;;;24.60;85.20;;;;;;3587317;39;20034;-65
2021/07/17 08:21:22;;;;;;;20.98;14.60;;;24.70;85.80;;;;;;3584620;40;20109;-66
2021/07/17 08:23:48;;;;;;;23.30;13.80;;;24.70;85.00;;;;;;3579837;40;20048;-66
2021/07/17 08:26:14;;;;;;;19.45;13.75;;;24.70;85.10;;;;;;3580409;40;20398;-65
2021/07/17 08:28:39;;;;;;;23.50;14.45;;;24.70;85.70;;;;;;3585374;39;20043;-65
2021/07/17 08:31:05;;;;;;;17.65;13.55;;;24.80;85.00;;;;;;3580998;40;20476;-65
2021/07/17 08:33:32;;;;;;;23.38;14.25;;;24.70;84.60;;;;;;3586024;39;20028;-65
2021/07/17 08:35:58;;;;;;;21.13;13.65;;;24.70;85.00;;;;;;3587846;39;20055;-65
2021/07/17 08:38:24;;;;;;;22.13;13.85;;;24.60;85.60;;;;;;3581654;40;20033;-65
2021/07/17 08:40:52;;;;;;;21.60;13.63;;;24.50;85.20;;;;;;3584888;40;20134;-66
2021/07/17 08:43:18;;;;;;;19.83;13.00;;;24.50;86.70;;;;;;3582141;40;20131;-65
2021/07/17 08:45:44;;;;;;;22.25;13.52;;;24.40;87.10;;;;;;3587015;39;20032;-65
2021/07/17 08:48:11;;;;;;;20.70;13.25;;;24.40;86.80;;;;;;3583295;39;20012;-66
2021/07/17 08:50:37;;;;;;;21.77;14.02;;;24.50;86.90;;;;;;3589129;39;20020;-66
2021/07/17 08:53:04;;;;;;;20.23;13.60;;;24.50;86.10;;;;;;3583302;39;20024;-68
2021/07/17 08:55:30;;;;;;;17.42;13.05;;;24.60;86.00;;;;;;3585620;40;20024;-66
2021/07/17 08:57:56;;;;;;;20.02;12.60;;;24.70;86.40;;;;;;3583085;40;20072;-64
2021/07/17 09:00:32;;;;;;;19.33;12.95;;;24.70;87.20;;;;;;3583756;40;20035;-64
2021/07/17 09:03:01;;;;;;;30.48;15.10;;;24.80;86.30;;;;;;3581309;40;20052;-64
2021/07/17 09:05:30;;;;;;;19.48;12.75;;;24.80;86.00;;;;;;3584335;40;20028;-64
2021/07/17 09:07:57;;;;;;;19.13;12.88;;;24.80;85.60;;;;;;3582319;40;20036;-64
2021/07/17 09:10:33;;;;;;;21.90;13.93;;;24.80;85.50;;;;;;3583782;40;20036;-64
2021/07/17 09:13:26;;;;;;;21.05;13.30;;;24.80;85.30;;;;;;3581782;40;20037;-65
2021/07/17 09:16:05;;;;;;;19.98;13.20;;;25.00;85.20;;;;;;3583487;40;20032;-65
2021/07/17 09:18:35;;;;;;;25.83;13.40;;;25.20;84.90;;;;;;3582808;40;20105;-65
2021/07/17 09:21:12;;;;;;;19.23;12.93;;;25.40;84.40;;;;;;3584669;40;20032;-65
2021/07/17 09:23:41;;;;;;;19.70;14.13;;;25.60;83.40;;;;;;3589175;40;20787;-65
2021/07/17 09:26:18;;;;;;;18.60;14.48;;;25.70;82.80;;;;;;3584475;40;20128;-65
2021/07/17 09:29:04;;;;;;;20.27;14.18;;;25.90;83.50;;;;;;3590232;39;20094;-65
2021/07/17 09:31:32;;;;;;;19.27;14.47;;;26.00;81.60;;;;;;3582553;40;20044;-65
2021/07/17 09:34:09;;;;;;;19.65;14.18;;;26.10;81.00;;;;;;3586358;40;20020;-65
2021/07/17 09:36:57;;;;;;;20.17;14.40;;;26.10;81.50;;;;;;3584147;40;20043;-65
2021/07/17 09:39:37;;;;;;;18.00;14.45;;;26.20;80.80;;;;;;3581926;40;20061;-65
2021/07/17 09:42:12;;;;;;;16.17;14.48;;;26.30;81.00;;;;;;3586628;40;20020;-65
2021/07/17 09:44:38;;;;;;;18.77;13.90;;;26.40;79.30;;;;;;3589405;39;20050;-65
2021/07/17 09:47:18;;;;;;;20.58;14.77;;;26.50;79.10;;;;;;3587108;39;20036;-65
2021/07/17 09:49:45;;;;;;;15.93;13.57;;;26.50;78.90;;;;;;3582568;40;20667;-66
2021/07/17 09:52:14;;;;;;;16.77;14.45;;;26.40;80.00;;;;;;3583695;40;20029;-66
2021/07/17 09:55:00;;;;;;;17.02;13.68;;;26.40;79.60;;;;;;3576904;40;20037;-66
2021/07/17 09:57:29;;;;;;;;;;;26.40;78.90;;;;;;3582842;40;20129;-66
2021/07/17 10:00:26;;;;;;;18.70;13.43;;;26.40;81.00;;;;;;3583420;40;19943;-67
2021/07/17 10:02:55;;;;;;;16.90;14.48;;;26.40;79.10;;;;;;3581807;40;20052;-66
2021/07/17 10:05:37;;;;;;;17.50;14.48;;;26.30;81.00;;;;;;3587482;40;20024;-67
2021/07/17 10:08:13;;;;;;;19.85;15.00;;;26.40;80.50;;;;;;3584143;39;20024;-66
2021/07/17 10:10:39;;;;;;;19.30;13.82;;;26.60;79.00;;;;;;3582429;40;20024;-66
2021/07/17 10:13:05;;;;;;;13.75;12.27;;;26.60;79.00;;;;;;3589134;40;20105;-66
2021/07/17 10:15:32;;;;;;;17.63;13.23;;;26.70;79.10;;;;;;3585421;39;20418;-66
2021/07/17 10:18:26;;;;;;;14.88;13.30;;;26.80;78.80;;;;;;3581612;40;20121;-66
2021/07/17 10:20:53;;;;;;;22.88;13.90;;;26.80;77.90;;;;;;3585846;40;20032;-64
2021/07/17 10:23:19;;;;;;;17.45;15.40;;;26.80;79.50;;;;;;3581273;40;20122;-65
2021/07/17 10:25:46;;;;;;;22.13;16.60;;;26.80;80.00;;;;;;3585079;40;20045;-65
2021/07/17 10:28:12;;;;;;;16.45;14.75;;;26.90;79.60;;;;;;3588233;40;20028;-66
2021/07/17 10:30:38;;;;;;;20.15;15.55;;;26.90;79.90;;;;;;3586352;40;20313;-65
2021/07/17 10:33:04;;;;;;;18.55;14.48;;;27.00;80.00;;;;;;3584268;40;20158;-65
2021/07/17 10:35:30;;;;;;;16.27;13.73;;;27.10;81.40;;;;;;3581623;40;20735;-65
2021/07/17 10:37:59;;;;;;;13.88;11.35;;;27.30;79.70;;;;;;3583143;40;20036;-65
2021/07/17 10:40:26;;;;;;;14.13;11.73;;;27.40;76.70;;;;;;3582245;40;20338;-65
2021/07/17 10:42:55;;;;;;;18.48;13.63;;;27.40;75.70;;;;;;3585147;39;20185;-65
2021/07/17 10:45:36;;;;;;;17.85;13.93;;;27.50;75.00;;;;;;3581187;40;20044;-65
2021/07/17 10:48:03;;;;;;;18.42;12.20;;;27.60;74.50;;;;;;3582470;40;20725;-65
2021/07/17 10:50:36;;;;;;;15.95;11.95;;;27.70;74.50;;;;;;3583606;40;20059;-65
2021/07/17 10:53:02;;;;;;;15.93;12.52;;;27.80;74.50;;;;;;3584501;40;20024;-65
2021/07/17 10:55:37;;;;;;;14.25;11.50;;;27.90;73.70;;;;;;3584533;40;20460;-65
2021/07/17 10:58:12;;;;;;;14.55;12.15;;;27.90;73.80;;;;;;3585223;39;20044;-65
2021/07/17 11:00:44;;;;;;;17.35;12.90;;;27.80;75.20;;;;;;3580452;40;20049;-65
2021/07/17 11:03:16;;;;;;;14.93;12.45;;;27.80;73.90;;;;;;3585305;40;20024;-65
2021/07/17 11:05:42;;;;;;;13.02;11.73;;;27.70;72.50;;;;;;3586411;40;20076;-65
2021/07/17 11:08:28;;;;;;;13.65;11.10;;;27.70;74.00;;;;;;3581719;40;20040;-65
2021/07/17 11:10:53;;;;;;;16.10;12.77;;;27.80;73.40;;;;;;3585356;40;20072;-64
2021/07/17 11:13:36;;;;;;;13.13;11.65;;;27.80;72.00;;;;;;3585855;40;20097;-65
2021/07/17 11:16:03;;;;;;;13.40;11.48;;;27.90;71.50;;;;;;3582746;40;20036;-65
2021/07/17 11:18:37;;;;;;;16.10;12.18;;;28.00;72.30;;;;;;3585509;40;20040;-65
2021/07/17 11:21:05;;;;;;;16.33;12.55;;;28.10;72.20;;;;;;3586886;40;20021;-65
2021/07/17 11:23:39;;;;;;;13.10;11.73;;;28.30;74.20;;;;;;3587887;40;20634;-65
2021/07/17 11:26:16;;;;;;;15.82;12.40;;;28.40;72.40;;;;;;3573519;40;20032;-66
2021/07/17 11:28:46;;;;;;;16.30;11.80;;;28.30;70.50;;;;;;3581327;40;20096;-65
2021/07/17 11:31:27;;;;;;;18.20;12.60;;;28.20;70.10;;;;;;3583178;40;20578;-65
2021/07/17 11:34:12;;;;;;;13.20;11.80;;;28.10;71.40;;;;;;3573745;40;20035;-64
2021/07/17 11:36:39;;;;;;;16.10;12.23;;;28.10;71.40;;;;;;3573542;40;20029;-65
2021/07/17 11:39:07;;;;;;;12.73;11.00;;;28.00;75.20;;;;;;3588415;39;20020;-64
2021/07/17 11:41:33;;;;;;;12.60;11.38;;;28.00;73.50;;;;;;3583747;40;20055;-65
2021/07/17 11:43:59;;;;;;;12.45;11.15;;;28.10;73.00;;;;;;3581551;39;20053;-64
2021/07/17 11:46:25;;;;;;;14.10;11.00;;;28.20;72.40;;;;;;3582375;40;20673;-65
2021/07/17 11:49:24;;;;;;;11.75;10.18;;;28.40;70.40;;;;;;3589135;40;20121;-66
2021/07/17 11:51:53;;;;;;;11.80;10.60;;;28.50;69.50;;;;;;3584759;39;20050;-65
2021/07/17 11:54:28;;;;;;;14.68;10.45;;;28.50;70.00;;;;;;3586551;40;20459;-65
2021/07/17 11:57:08;;;;;;;;;;;28.50;69.90;;;;;;3584964;40;20044;-65
2021/07/17 11:59:35;;;;;;;15.20;11.48;;;28.50;70.20;;;;;;3580815;40;20404;-66
2021/07/17 12:02:08;;;;;;;13.43;11.02;;;28.50;67.80;;;;;;3584415;40;20037;-65
2021/07/17 12:05:04;;;;;;;13.07;11.65;;;28.50;69.20;;;;;;3588654;40;20405;-66
2021/07/17 12:07:31;;;;;;;;;;;28.60;69.00;;;;;;3586017;40;20421;-66
2021/07/17 12:10:18;;;;;;;13.70;12.13;;;28.70;68.10;;;;;;3582409;40;19940;-66
2021/07/17 12:12:46;;;;;;;13.05;11.50;;;28.70;68.00;;;;;;3586609;40;20045;-66
2021/07/17 12:15:18;;;;;;;18.13;11.80;;;28.70;68.00;;;;;;3588769;39;20808;-66
2021/07/17 12:17:47;;;;;;;13.30;10.13;;;28.70;70.20;;;;;;3588010;39;20035;-65
2021/07/17 12:20:20;;;;;;;11.40;10.13;;;28.70;70.50;;;;;;3585680;40;20041;-65
2021/07/17 12:23:00;;;;;;;12.73;10.35;;;28.80;68.30;;;;;;3587240;39;20049;-65
2021/07/17 12:25:29;;;;;;;13.52;11.25;;;28.90;67.90;;;;;;3585602;40;20117;-65
2021/07/17 12:28:40;;;;;;;12.38;11.13;;;29.00;69.60;;;;;;3584990;40;20016;-65
2021/07/17 12:31:11;;;;;;;14.48;11.43;;;29.00;69.60;;;;;;3586120;40;20039;-66
2021/07/17 12:33:42;;;;;;;13.35;10.55;;;29.10;69.10;;;;;;3585349;39;20028;-65
2021/07/17 12:36:25;;;;;;;13.43;10.30;;;29.20;66.90;;;;;;3585919;40;20039;-65
2021/07/17 12:38:59;;;;;;;14.77;11.10;;;29.10;65.20;;;;;;3583090;40;20047;-66